AAL881 KCLT-MMUN
Flight info
| Callsign | AAL881 |
|---|---|
| Flight time | N/A |
| Altitude | 36000 |
| Route | BEAVY6 JENDO DCT MAVRC DCT TEEEM Q75 ENEME DCT EVANZ Q109 KNOST M215 CIGAR M219 NAVVL L465 SHARQ UM463 WALKY/N0382F240 B879 NOSAT NOSAT1B |
| Aircraft | B738/M-SDE2E3FGHIRWXY/LB1 |
Departure
| Time | 2026-05-06 01:20 |
|---|---|
| Airport | Charlotte Douglas International Airport (KCLT) |
Arrival
| Time | N/A |
|---|---|
| Airport | Cancún International Airport (MMUN) |
| Time | Latitude | Longitude | Altitude | Speed | Heading |
|---|---|---|---|---|---|
| 2026-05-06 00:54 | 35.22003 | -80.94108 | 754 ft | 0 kts | 357° |
| 2026-05-06 01:06 | 35.22001 | -80.94107 | 754 ft | 1 kts | 356° |
| 2026-05-06 01:06 | 35.21986 | -80.94106 | 754 ft | 2 kts | 355° |
| 2026-05-06 01:07 | 35.21971 | -80.94105 | 754 ft | 2 kts | 356° |
| 2026-05-06 01:07 | 35.21967 | -80.94105 | 754 ft | 2 kts | 356° |
| 2026-05-06 01:07 | 35.21957 | -80.94103 | 754 ft | 2 kts | 356° |
| 2026-05-06 01:08 | 35.21941 | -80.94102 | 754 ft | 2 kts | 356° |
| 2026-05-06 01:08 | 35.21927 | -80.94101 | 754 ft | 2 kts | 356° |
| 2026-05-06 01:08 | 35.21925 | -80.94101 | 754 ft | 2 kts | 356° |
| 2026-05-06 01:09 | 35.21914 | -80.94099 | 754 ft | 2 kts | 356° |
| 2026-05-06 01:09 | 35.21898 | -80.94099 | 754 ft | 2 kts | 356° |
| 2026-05-06 01:09 | 35.21885 | -80.94097 | 754 ft | 0 kts | 356° |
| 2026-05-06 01:11 | 35.21892 | -80.94090 | 754 ft | 1 kts | 63° |
| 2026-05-06 01:12 | 35.21886 | -80.94076 | 754 ft | 2 kts | 136° |
| 2026-05-06 01:12 | 35.21875 | -80.94061 | 754 ft | 2 kts | 135° |
| 2026-05-06 01:12 | 35.21864 | -80.94048 | 754 ft | 2 kts | 135° |
| 2026-05-06 01:12 | 35.21836 | -80.94016 | 754 ft | 11 kts | 137° |
| 2026-05-06 01:13 | 35.21800 | -80.93973 | 754 ft | 3 kts | 112° |
| 2026-05-06 01:13 | 35.21803 | -80.93948 | 754 ft | 3 kts | 64° |
| 2026-05-06 01:13 | 35.21834 | -80.93905 | 754 ft | 10 kts | 48° |
| 2026-05-06 01:13 | 35.21877 | -80.93845 | 754 ft | 8 kts | 49° |
| 2026-05-06 01:14 | 35.21968 | -80.93722 | 754 ft | 8 kts | 41° |
| 2026-05-06 01:14 | 35.22020 | -80.93710 | 754 ft | 7 kts | 355° |
| 2026-05-06 01:14 | 35.22074 | -80.93716 | 754 ft | 9 kts | 355° |
| 2026-05-06 01:15 | 35.22156 | -80.93722 | 754 ft | 13 kts | 356° |
| 2026-05-06 01:15 | 35.22266 | -80.93733 | 754 ft | 17 kts | 356° |
| 2026-05-06 01:15 | 35.22359 | -80.93739 | 754 ft | 10 kts | 355° |
| 2026-05-06 01:15 | 35.22429 | -80.93745 | 754 ft | 9 kts | 356° |
| 2026-05-06 01:16 | 35.22481 | -80.93748 | 754 ft | 3 kts | 5° |
| 2026-05-06 01:16 | 35.22498 | -80.93735 | 754 ft | 2 kts | 54° |
| 2026-05-06 01:16 | 35.22499 | -80.93733 | 754 ft | 0 kts | 60° |
| 2026-05-06 01:19 | 35.22504 | -80.93721 | 754 ft | 6 kts | 68° |
| 2026-05-06 01:19 | 35.22480 | -80.93628 | 755 ft | 11 kts | 144° |
| 2026-05-06 01:19 | 35.22432 | -80.93613 | 755 ft | 4 kts | 176° |
| 2026-05-06 01:20 | 35.22317 | -80.93604 | 755 ft | 49 kts | 176° |
| 2026-05-06 01:20 | 35.21690 | -80.93549 | 755 ft | 127 kts | 176° |
| 2026-05-06 01:20 | 35.20608 | -80.93451 | 971 ft | 174 kts | 177° |
| 2026-05-06 01:20 | 35.19418 | -80.93361 | 1851 ft | 180 kts | 179° |
| 2026-05-06 01:21 | 35.18111 | -80.93253 | 2399 ft | 200 kts | 177° |
| 2026-05-06 01:21 | 35.16647 | -80.93076 | 2896 ft | 221 kts | 176° |
| 2026-05-06 01:21 | 35.15102 | -80.92891 | 3700 ft | 227 kts | 177° |
| 2026-05-06 01:21 | 35.13533 | -80.92852 | 4498 ft | 229 kts | 190° |
| 2026-05-06 01:22 | 35.12004 | -80.93357 | 5324 ft | 230 kts | 201° |
| 2026-05-06 01:22 | 35.10498 | -80.93969 | 6115 ft | 235 kts | 200° |
| 2026-05-06 01:22 | 35.08900 | -80.94531 | 6898 ft | 241 kts | 198° |
| 2026-05-06 01:22 | 35.07252 | -80.95047 | 7512 ft | 254 kts | 198° |
| 2026-05-06 01:23 | 35.05502 | -80.95576 | 8004 ft | 270 kts | 197° |
| 2026-05-06 01:23 | 35.03681 | -80.96120 | 8728 ft | 277 kts | 198° |
| 2026-05-06 01:23 | 35.01804 | -80.96679 | 9546 ft | 282 kts | 198° |
| 2026-05-06 01:23 | 34.99900 | -80.97250 | 10315 ft | 287 kts | 199° |
| 2026-05-06 01:24 | 34.97903 | -80.97855 | 10803 ft | 302 kts | 199° |
| 2026-05-06 01:24 | 34.95806 | -80.98492 | 11231 ft | 318 kts | 198° |
| 2026-05-06 01:24 | 34.93638 | -80.99148 | 11665 ft | 333 kts | 198° |
| 2026-05-06 01:24 | 34.91383 | -80.99828 | 12060 ft | 349 kts | 198° |
| 2026-05-06 01:25 | 34.89032 | -81.00534 | 12559 ft | 360 kts | 198° |
| 2026-05-06 01:25 | 34.86603 | -81.01260 | 13289 ft | 364 kts | 198° |
| 2026-05-06 01:25 | 34.84171 | -81.01984 | 13949 ft | 369 kts | 198° |
| 2026-05-06 01:25 | 34.81714 | -81.02717 | 14626 ft | 373 kts | 198° |
| 2026-05-06 01:26 | 34.79207 | -81.03465 | 15261 ft | 378 kts | 198° |
| 2026-05-06 01:26 | 34.76680 | -81.04220 | 15892 ft | 383 kts | 198° |
| 2026-05-06 01:26 | 34.74081 | -81.04997 | 16500 ft | 388 kts | 198° |
| 2026-05-06 01:26 | 34.71463 | -81.05781 | 17070 ft | 393 kts | 198° |
| 2026-05-06 01:27 | 34.68790 | -81.06580 | 17675 ft | 398 kts | 198° |
| 2026-05-06 01:27 | 34.66094 | -81.07385 | 18336 ft | 400 kts | 198° |
| 2026-05-06 01:27 | 34.63386 | -81.08193 | 18897 ft | 404 kts | 198° |
| 2026-05-06 01:27 | 34.60675 | -81.09001 | 19466 ft | 408 kts | 198° |
| 2026-05-06 01:28 | 34.57966 | -81.09808 | 20038 ft | 410 kts | 199° |
| 2026-05-06 01:28 | 34.55181 | -81.10604 | 20549 ft | 416 kts | 197° |
| 2026-05-06 01:28 | 34.52350 | -81.11284 | 21125 ft | 419 kts | 195° |
| 2026-05-06 01:28 | 34.49504 | -81.11889 | 21575 ft | 424 kts | 195° |
| 2026-05-06 01:29 | 34.46544 | -81.12491 | 22029 ft | 429 kts | 195° |
| 2026-05-06 01:29 | 34.43600 | -81.13085 | 22494 ft | 432 kts | 195° |
| 2026-05-06 01:29 | 34.40621 | -81.13692 | 22968 ft | 435 kts | 195° |
| 2026-05-06 01:29 | 34.37690 | -81.14297 | 23355 ft | 441 kts | 196° |
| 2026-05-06 01:30 | 34.34837 | -81.14941 | 23839 ft | 442 kts | 198° |
| 2026-05-06 01:30 | 34.31880 | -81.15746 | 24274 ft | 444 kts | 200° |
| 2026-05-06 01:30 | 34.28980 | -81.16619 | 24809 ft | 444 kts | 201° |
| 2026-05-06 01:30 | 34.26024 | -81.17542 | 25251 ft | 447 kts | 201° |
| 2026-05-06 01:31 | 34.23033 | -81.18486 | 25559 ft | 454 kts | 201° |
| 2026-05-06 01:31 | 34.20076 | -81.19415 | 26000 ft | 456 kts | 201° |
| 2026-05-06 01:31 | 34.16982 | -81.20377 | 26421 ft | 460 kts | 201° |
| 2026-05-06 01:31 | 34.13938 | -81.21317 | 26788 ft | 464 kts | 201° |
| 2026-05-06 01:32 | 34.10786 | -81.22284 | 27112 ft | 469 kts | 201° |
| 2026-05-06 01:32 | 34.07704 | -81.23222 | 27532 ft | 471 kts | 201° |
| 2026-05-06 01:32 | 34.04517 | -81.24187 | 27876 ft | 475 kts | 201° |
| 2026-05-06 01:32 | 34.01327 | -81.25150 | 28202 ft | 479 kts | 202° |
| 2026-05-06 01:33 | 33.98109 | -81.26119 | 28584 ft | 482 kts | 202° |
| 2026-05-06 01:33 | 33.94866 | -81.27091 | 29024 ft | 483 kts | 202° |
| 2026-05-06 01:33 | 33.91555 | -81.28083 | 29300 ft | 488 kts | 202° |
| 2026-05-06 01:33 | 33.88297 | -81.29058 | 29653 ft | 491 kts | 202° |
| 2026-05-06 01:34 | 33.84969 | -81.30053 | 30127 ft | 489 kts | 202° |
| 2026-05-06 01:34 | 33.81732 | -81.31121 | 30601 ft | 484 kts | 205° |
| 2026-05-06 01:34 | 33.78569 | -81.32360 | 31096 ft | 479 kts | 208° |
| 2026-05-06 01:34 | 33.51968 | -81.43925 | 33888 ft | 478 kts | 211° |
| 2026-05-06 01:35 | 33.36419 | -81.50778 | 36232 ft | 476 kts | 211° |
| 2026-05-06 01:35 | 33.33346 | -81.52138 | 36055 ft | 474 kts | 211° |
| 2026-05-06 01:35 | 33.27241 | -81.54794 | 36034 ft | 465 kts | 211° |
| 2026-05-06 01:36 | 33.21124 | -81.57449 | 36032 ft | 468 kts | 211° |
| 2026-05-06 01:36 | 33.14994 | -81.60091 | 36037 ft | 468 kts | 211° |
| 2026-05-06 01:37 | 33.08886 | -81.62716 | 36036 ft | 469 kts | 211° |
| 2026-05-06 01:37 | 33.02738 | -81.65348 | 36036 ft | 469 kts | 211° |
| 2026-05-06 01:38 | 32.96615 | -81.67961 | 36036 ft | 469 kts | 211° |
| 2026-05-06 01:38 | 32.90451 | -81.70559 | 36042 ft | 472 kts | 209° |
| 2026-05-06 01:39 | 32.84197 | -81.72866 | 36040 ft | 473 kts | 207° |
| 2026-05-06 01:39 | 32.35881 | -81.89168 | 36032 ft | 477 kts | 207° |
| 2026-05-06 01:40 | 31.42995 | -82.19859 | 36047 ft | 475 kts | 207° |
| 2026-05-06 01:41 | 30.90623 | -82.37144 | 36038 ft | 476 kts | 207° |
| 2026-05-06 01:41 | 30.63979 | -82.46133 | 36044 ft | 461 kts | 214° |
| 2026-05-06 01:42 | 30.58214 | -82.48968 | 36043 ft | 464 kts | 214° |
| 2026-05-06 01:42 | 30.52315 | -82.51796 | 36041 ft | 463 kts | 214° |
| 2026-05-06 01:43 | 30.46373 | -82.54591 | 36040 ft | 465 kts | 213° |
| 2026-05-06 01:43 | 30.40401 | -82.57379 | 36041 ft | 465 kts | 213° |
| 2026-05-06 01:44 | 30.34442 | -82.60148 | 36043 ft | 466 kts | 213° |
| 2026-05-06 01:44 | 30.28465 | -82.62914 | 36045 ft | 462 kts | 213° |
| 2026-05-06 01:45 | 30.22567 | -82.65643 | 36052 ft | 465 kts | 213° |
| 2026-05-06 01:45 | 30.16544 | -82.68435 | 36053 ft | 467 kts | 213° |
| 2026-05-06 01:46 | 30.10527 | -82.71208 | 36049 ft | 463 kts | 212° |
| 2026-05-06 01:46 | 30.04547 | -82.73964 | 36047 ft | 467 kts | 212° |
| 2026-05-06 01:47 | 29.98558 | -82.76727 | 36049 ft | 467 kts | 212° |
| 2026-05-06 01:47 | 29.92563 | -82.79478 | 36049 ft | 465 kts | 212° |
| 2026-05-06 01:48 | 29.87133 | -82.81975 | 36047 ft | 466 kts | 212° |
| 2026-05-06 01:48 | 29.81262 | -82.84666 | 36047 ft | 465 kts | 212° |
| 2026-05-06 01:49 | 29.75422 | -82.87341 | 36045 ft | 463 kts | 212° |
| 2026-05-06 01:49 | 29.69436 | -82.90080 | 36046 ft | 464 kts | 212° |
| 2026-05-06 01:50 | 29.63492 | -82.92799 | 36046 ft | 465 kts | 212° |
| 2026-05-06 01:50 | 29.17552 | -83.12301 | 36027 ft | 481 kts | 196° |
| 2026-05-06 01:51 | 29.10774 | -83.12629 | 36031 ft | 490 kts | 189° |
| 2026-05-06 01:51 | 29.04012 | -83.13074 | 36027 ft | 483 kts | 195° |
| 2026-05-06 01:52 | 28.97416 | -83.14297 | 36028 ft | 478 kts | 200° |
| 2026-05-06 01:52 | 28.90999 | -83.15974 | 36030 ft | 475 kts | 202° |
| 2026-05-06 01:53 | 28.84597 | -83.17828 | 36031 ft | 474 kts | 203° |
| 2026-05-06 01:53 | 28.78248 | -83.19701 | 36032 ft | 474 kts | 203° |
| 2026-05-06 01:54 | 28.71909 | -83.21564 | 36032 ft | 473 kts | 203° |
| 2026-05-06 01:54 | 28.65544 | -83.23426 | 36033 ft | 476 kts | 203° |
| 2026-05-06 01:55 | 28.59169 | -83.25277 | 36035 ft | 473 kts | 203° |
| 2026-05-06 01:55 | 28.52777 | -83.27132 | 36037 ft | 474 kts | 203° |
| 2026-05-06 01:56 | 28.46381 | -83.28983 | 36036 ft | 473 kts | 203° |
| 2026-05-06 01:56 | 28.39977 | -83.30832 | 36035 ft | 474 kts | 203° |
| 2026-05-06 01:57 | 28.33626 | -83.32665 | 36038 ft | 475 kts | 203° |
| 2026-05-06 01:57 | 28.27219 | -83.34494 | 36039 ft | 477 kts | 202° |
| 2026-05-06 01:58 | 28.20736 | -83.36304 | 36040 ft | 481 kts | 202° |
| 2026-05-06 01:58 | 28.14304 | -83.38120 | 36038 ft | 485 kts | 202° |
| 2026-05-06 01:59 | 28.08182 | -83.39938 | 36038 ft | 483 kts | 207° |
| 2026-05-06 01:59 | 28.05161 | -83.41428 | 36040 ft | 471 kts | 218° |
| 2026-05-06 01:59 | 28.02473 | -83.43449 | 36041 ft | 461 kts | 227° |
| 2026-05-06 02:00 | 27.98143 | -83.48498 | 36038 ft | 442 kts | 244° |
| 2026-05-06 02:00 | 27.95348 | -83.54521 | 36039 ft | 434 kts | 254° |
| 2026-05-06 02:01 | 27.92998 | -83.60825 | 36036 ft | 434 kts | 256° |
| 2026-05-06 02:01 | 27.90779 | -83.67007 | 36036 ft | 436 kts | 255° |
| 2026-05-06 02:02 | 27.88490 | -83.73339 | 36030 ft | 437 kts | 255° |
| 2026-05-06 02:02 | 27.87364 | -83.76453 | 36031 ft | 423 kts | 255° |
| 2026-05-06 02:02 | 27.86279 | -83.79441 | 36032 ft | 408 kts | 255° |
| 2026-05-06 02:03 | 27.84167 | -83.85259 | 36032 ft | 406 kts | 256° |
| 2026-05-06 02:03 | 27.82030 | -83.91151 | 36031 ft | 412 kts | 255° |
| 2026-05-06 02:04 | 27.79827 | -83.97122 | 36029 ft | 410 kts | 255° |
| 2026-05-06 02:04 | 27.77636 | -84.03024 | 36028 ft | 412 kts | 255° |
| 2026-05-06 02:05 | 27.75445 | -84.08907 | 36029 ft | 411 kts | 255° |
| 2026-05-06 02:05 | 27.73261 | -84.14759 | 36029 ft | 411 kts | 255° |
| 2026-05-06 02:06 | 27.71068 | -84.20631 | 36029 ft | 411 kts | 255° |
| 2026-05-06 02:06 | 27.68865 | -84.26512 | 36029 ft | 412 kts | 255° |
| 2026-05-06 02:07 | 27.66652 | -84.32420 | 36029 ft | 411 kts | 255° |
| 2026-05-06 02:07 | 27.64440 | -84.38312 | 36028 ft | 411 kts | 255° |
| 2026-05-06 02:08 | 27.62240 | -84.44160 | 36029 ft | 412 kts | 255° |
| 2026-05-06 02:08 | 27.60030 | -84.50028 | 36029 ft | 414 kts | 255° |
| 2026-05-06 02:09 | 27.57831 | -84.55862 | 36029 ft | 412 kts | 255° |
| 2026-05-06 02:09 | 27.55590 | -84.61797 | 36029 ft | 414 kts | 255° |
| 2026-05-06 02:10 | 27.53345 | -84.67726 | 36029 ft | 412 kts | 254° |
| 2026-05-06 02:10 | 27.50876 | -84.73472 | 36027 ft | 422 kts | 245° |
| 2026-05-06 02:11 | 27.49063 | -84.76095 | 36029 ft | 435 kts | 234° |
| 2026-05-06 02:11 | 27.46768 | -84.78348 | 36029 ft | 447 kts | 224° |
| 2026-05-06 02:11 | 27.41317 | -84.81745 | 36030 ft | 461 kts | 212° |
| 2026-05-06 02:12 | 27.35476 | -84.84308 | 36029 ft | 465 kts | 207° |
| 2026-05-06 02:12 | 27.29478 | -84.86678 | 36028 ft | 465 kts | 207° |
| 2026-05-06 02:13 | 27.23364 | -84.89095 | 36028 ft | 466 kts | 207° |
| 2026-05-06 02:13 | 27.17254 | -84.91553 | 36029 ft | 465 kts | 207° |
| 2026-05-06 02:14 | 27.11134 | -84.94041 | 36030 ft | 466 kts | 207° |
| 2026-05-06 02:14 | 27.05030 | -84.96537 | 36029 ft | 466 kts | 207° |
| 2026-05-06 02:15 | 26.98932 | -84.99028 | 36030 ft | 463 kts | 207° |
| 2026-05-06 02:15 | 26.92870 | -85.01510 | 36029 ft | 465 kts | 207° |
| 2026-05-06 02:16 | 26.86759 | -85.04009 | 36027 ft | 464 kts | 207° |
| 2026-05-06 02:16 | 26.80714 | -85.06473 | 36030 ft | 463 kts | 207° |
| 2026-05-06 02:17 | 26.74631 | -85.08957 | 36029 ft | 464 kts | 207° |
| 2026-05-06 02:17 | 26.68533 | -85.11441 | 36028 ft | 464 kts | 207° |
| 2026-05-06 02:18 | 26.62430 | -85.13924 | 36029 ft | 465 kts | 207° |
| 2026-05-06 02:18 | 26.56363 | -85.16388 | 36029 ft | 464 kts | 207° |
| 2026-05-06 02:19 | 26.50245 | -85.18873 | 36027 ft | 466 kts | 207° |
| 2026-05-06 02:19 | 26.44185 | -85.21329 | 36029 ft | 464 kts | 207° |
| 2026-05-06 02:20 | 26.34731 | -85.24302 | 36027 ft | 476 kts | 195° |
| 2026-05-06 02:21 | 26.28105 | -85.25118 | 36029 ft | 478 kts | 191° |
| 2026-05-06 02:21 | 26.21462 | -85.25677 | 36029 ft | 479 kts | 190° |
| 2026-05-06 02:22 | 26.14798 | -85.26257 | 36028 ft | 478 kts | 190° |
| 2026-05-06 02:22 | 26.08157 | -85.26890 | 36029 ft | 478 kts | 191° |
| 2026-05-06 02:23 | 26.01497 | -85.27560 | 36026 ft | 477 kts | 191° |
| 2026-05-06 02:23 | 25.94879 | -85.28240 | 36021 ft | 477 kts | 191° |
| 2026-05-06 02:24 | 25.88245 | -85.28923 | 36023 ft | 478 kts | 191° |
| 2026-05-06 02:24 | 25.81558 | -85.29614 | 36020 ft | 479 kts | 191° |
| 2026-05-06 02:25 | 25.74947 | -85.30295 | 36020 ft | 478 kts | 191° |
| 2026-05-06 02:25 | 25.61765 | -85.31653 | 36025 ft | 479 kts | 191° |
| 2026-05-06 02:26 | 25.55207 | -85.32327 | 36021 ft | 479 kts | 191° |
| 2026-05-06 02:26 | 25.48614 | -85.33003 | 36020 ft | 479 kts | 191° |
| 2026-05-06 02:27 | 25.42037 | -85.33678 | 36020 ft | 480 kts | 190° |
| 2026-05-06 02:27 | 25.35545 | -85.34614 | 36020 ft | 473 kts | 198° |
| 2026-05-06 02:28 | 25.29586 | -85.37133 | 36022 ft | 463 kts | 213° |
| 2026-05-06 02:28 | 25.23999 | -85.40556 | 36019 ft | 460 kts | 217° |
| 2026-05-06 02:29 | 25.18556 | -85.44102 | 36017 ft | 461 kts | 217° |
| 2026-05-06 02:29 | 25.13087 | -85.47633 | 36017 ft | 461 kts | 216° |
| 2026-05-06 02:30 | 25.07077 | -85.50102 | 36018 ft | 478 kts | 193° |
| 2026-05-06 02:30 | 25.00453 | -85.50430 | 36019 ft | 484 kts | 184° |
| 2026-05-06 02:31 | 24.93803 | -85.50279 | 36017 ft | 485 kts | 183° |
| 2026-05-06 02:31 | 24.87206 | -85.50110 | 36020 ft | 484 kts | 183° |
| 2026-05-06 02:32 | 24.80527 | -85.50020 | 36017 ft | 484 kts | 184° |
| 2026-05-06 02:32 | 24.74162 | -85.49987 | 36018 ft | 484 kts | 184° |
| 2026-05-06 02:33 | 24.66895 | -85.49980 | 36018 ft | 483 kts | 184° |
| 2026-05-06 02:33 | 24.64808 | -85.49981 | 36018 ft | 484 kts | 184° |
| 2026-05-06 02:34 | 24.53577 | -85.49986 | 36018 ft | 482 kts | 184° |